Flight Track Log - Related Links

Times and Time Zones

All times are in EDT time to prevent confusion due to time zone crossing. See the EJA898 flight status page for this flight to view local times or setup timezone preferences in your user account.

Time Position Orientation Groundspeed Altitude Reporting Facility
EDT Latitude Longitude Course Direction KTS MPH feet Rate Location/Type
Sat 03:10:43 PM 33.6167 -111.9333 292° West 185 213 2,500  Level Phoenix TRACON
Sat 03:11:50 PM 33.6333 -111.9833 292° West 214 246 5,400 2,163 Climbing Phoenix TRACON
Sat 03:12:09 PM 33.6531 -111.9922 339° North 225 259 5,600 2,025 Climbing Albuquerque Center
Sat 03:13:10 PM 33.7061 -111.9450 37° Northeast 241 277 8,100 2,098 Climbing Albuquerque Center
Sat 03:14:12 PM 33.7756 -111.9047 26° Northeast 278 320 9,900 1,707 Climbing Albuquerque Center
Sat 03:15:13 PM 33.8589 -111.8517 28° Northeast 338 389 11,600 1,951 Climbing Albuquerque Center
Sat 03:16:15 PM 33.9536 -111.7922 27° Northeast 386 444 13,900 2,710 Climbing Albuquerque Center
Sat 03:17:17 PM 34.0625 -111.7258 27° Northeast 391 450 17,200 2,634 Climbing Albuquerque Center
Sat 03:18:18 PM 34.1722 -111.6811 19° North 386 444 19,300 1,951 Climbing Albuquerque Center
Sat 03:19:20 PM 34.2697 -111.6436 18° North 401 461 21,200 1,805 Climbing Albuquerque Center
Sat 03:20:21 PM 34.3756 -111.6014 18° North 402 463 23,000 1,024 Climbing Albuquerque Center
Sat 03:21:23 PM 34.4828 -111.5589 18° North 403 464 23,300 683 Climbing Albuquerque Center
Sat 03:22:24 PM 34.6119 -111.5497 North 391 450 24,400 1,073 Climbing Albuquerque Center
Sat 03:23:26 PM 34.7200 -111.5753 349° North 391 450 25,500 1,113 Climbing Albuquerque Center
Sat 03:24:28 PM 34.8322 -111.6017 349° North 405 466 26,700 1,171 Climbing Albuquerque Center
Sat 03:25:29 PM 34.9464 -111.6272 350° North 415 478 27,900 1,171 Climbing Albuquerque Center
Sat 03:26:31 PM 35.0597 -111.6544 349° North 417 480 29,100 1,016 Climbing Albuquerque Center
Sat 03:27:33 PM 35.1711 -111.6822 348° North 412 474 30,000 683 Climbing Albuquerque Center
Sat 03:28:34 PM 35.2742 -111.7478 333° Northwest 408 470 30,500 878 Climbing Albuquerque Center
Sat 03:29:36 PM 35.3736 -111.8053 335° Northwest 401 461 31,800 1,366 Climbing Albuquerque Center
Sat 03:30:37 PM 35.4892 -111.8714 335° Northwest 389 448 33,300 1,073 Climbing Albuquerque Center
Sat 03:31:39 PM 35.5842 -111.9269 335° Northwest 385 443 34,000 339 Climbing Albuquerque Center
Sat 03:32:41 PM 35.6850 -111.9550 347° North 383 441 34,000  Level Albuquerque Center
Sat 03:33:00 PM 35.7264 -111.9625 352° North 383 441 34,000  Level Los Angeles Center
Sat 03:34:02 PM 35.8314 -111.9814 352° North 384 442 34,000  Level Los Angeles Center
Sat 03:35:04 PM 35.9367 -111.9972 353° North 384 442 34,000  Level Los Angeles Center
Sat 03:36:06 PM 36.0419 -112.0169 351° North 384 442 34,000  Level Los Angeles Center
Sat 03:37:08 PM 36.1467 -112.0339 353° North 384 442 34,000  Level Los Angeles Center
Sat 03:38:10 PM 36.2678 -112.0544 352° North 381 438 34,000  Level Los Angeles Center
Sat 03:39:12 PM 36.3725 -112.0728 352° North 381 438 34,000  Level Los Angeles Center
Sat 03:40:14 PM 36.4792 -112.0908 352° North 384 442 34,000  Level Los Angeles Center
Sat 03:41:16 PM 36.5853 -112.1094 352° North 386 444 34,000  Level Los Angeles Center
Sat 03:42:18 PM 36.7142 -112.1322 352° North 389 448 34,000  Level Los Angeles Center
Sat 03:43:20 PM 36.8206 -112.1506 352° North 387 445 34,000  Level Los Angeles Center
Sat 03:44:22 PM 36.9253 -112.1686 352° North 382 440 34,000  Level Los Angeles Center
Sat 03:45:24 PM 37.0311 -112.1861 352° North 383 441 34,000  Level Los Angeles Center
Sat 03:46:26 PM 37.1350 -112.2044 352° North 379 436 34,000  Level Los Angeles Center
Sat 03:47:28 PM 37.2414 -112.2233 352° North 384 442 34,000  Level Los Angeles Center
Sat 03:48:30 PM 37.3656 -112.2453 352° North 380 437 34,000  Level Los Angeles Center
Sat 03:48:45 PM 37.3864 -112.2494 351° North 381 438 34,000  Level Salt Lake Center
Sat 03:49:46 PM 37.4928 -112.2683 352° North 386 444 34,000  Level Salt Lake Center
Sat 03:50:47 PM 37.6003 -112.2869 352° North 390 449 34,000  Level Salt Lake Center
Sat 03:51:49 PM 37.7053 -112.3056 352° North 387 445 34,000  Level Salt Lake Center
Sat 03:52:50 PM 37.8103 -112.3183 355° North 384 442 34,000  Level Salt Lake Center
Sat 03:53:51 PM 37.9367 -112.3333 355° North 383 441 34,000  Level Salt Lake Center
Sat 03:54:52 PM 38.0419 -112.3469 354° North 382 440 34,000  Level Salt Lake Center
Sat 03:55:54 PM 38.1478 -112.3617 354° North 384 442 34,000 -390 Level Salt Lake Center
Sat 03:56:55 PM 38.2547 -112.3744 355° North 387 445 33,200 -885 Descending Salt Lake Center
Sat 03:57:56 PM 38.3639 -112.3872 355° North 392 451 32,200 -1,033 Descending Salt Lake Center
Sat 03:58:57 PM 38.4706 -112.4011 354° North 388 447 31,100 -1,024 Descending Salt Lake Center
Sat 03:59:59 PM 38.5797 -112.4147 354° North 392 451 30,100 -537 Descending Salt Lake Center
Sat 04:01:00 PM 38.6928 -112.4286 355° North 404 465 30,000 -49 Descending Salt Lake Center
Sat 04:02:01 PM 38.8308 -112.4469 354° North 415 478 30,000  Level Salt Lake Center
Sat 04:03:02 PM 38.9458 -112.4606 355° North 417 480 30,000  Level Salt Lake Center
Sat 04:04:03 PM 39.0631 -112.4764 354° North 422 486 30,000  Level Salt Lake Center
Sat 04:05:05 PM 39.1792 -112.4908 354° North 422 486 30,000  Level Salt Lake Center
Sat 04:06:06 PM 39.2828 -112.5022 355° North 416 479 30,000  Level Salt Lake Center
Sat 04:07:07 PM 39.4247 -112.4644 12° North 438 504 30,000 -541 Level Salt Lake Center
Sat 04:08:08 PM 39.5381 -112.4278 14° North 421 484 28,900 -1,820 Descending Salt Lake Center
Sat 04:09:09 PM 39.6467 -112.3919 14° North 406 467 26,300 -2,439 Descending Salt Lake Center
Sat 04:10:11 PM 39.7514 -112.3567 15° North 392 451 23,900 -2,439 Descending Salt Lake Center
Sat 04:11:12 PM 39.8600 -112.3214 14° North 400 460 21,300 -2,476 Descending Salt Lake Center
Sat 04:12:17 PM 39.9728 -112.2931 11° North 386 444 18,700 -2,066 Descending Salt Lake Center
Sat 04:13:14 PM 40.0575 -112.2550 19° North 351 404 17,100 -1,475 Descending Salt Lake Center
Sat 04:14:15 PM 40.1525 -112.2222 15° North 351 404 15,800 -1,171 Descending Salt Lake Center
Sat 04:15:17 PM 40.2494 -112.1897 14° North 359 413 14,700 -829 Descending Salt Lake Center
Sat 04:16:18 PM 40.3442 -112.1569 15° North 352 405 14,100 -590 Descending Salt Lake Center
Sat 04:17:19 PM 40.4550 -112.1192 15° North 344 396 13,500 -934 Descending Salt Lake Center
Sat 04:18:20 PM 40.5494 -112.0878 14° North 349 402 12,200 -1,180 Descending Salt Lake Center
Sat 04:19:21 PM 40.6392 -112.0814 North 328 377 11,100 -590 Descending Salt Lake Center
Sat 04:20:22 PM 40.7272 -112.0911 355° North 296 341 11,000 -248 Descending Salt Lake Center
Sat 04:21:22 PM 40.7978 -112.0986 355° North 248 285 10,600 -780 Descending Salt Lake Center
Sat 04:22:25 PM 40.8633 -112.1047 356° North 246 283 9,400 -776 Descending Salt Lake Center
Sat 04:23:18 PM 40.9261 -112.0947 North 247 284 9,100 -353 Descending Salt Lake Center
Sat 04:24:24 PM 40.9361 -111.9919 83° East 249 287 8,700 -1,099 Descending Salt Lake Center
Sat 04:25:29 PM 40.8875 -111.9614 155° Southeast 220 253 6,700 -1,759 Descending Salt Lake Center
Sat 04:26:20 PM 40.8378 -111.9631 181° South 170 196 5,300 -1,230 Descending Salt Lake Center
Sat 04:27:31 PM 40.7936 -111.9622 179° South 132 152 4,200 -930 Descending Salt Lake Center
Sat 04:29:00 PM 40.7833 -111.9667 159° South  Level FlightAware Approximate

Login

Don't have an account? Register now (free) for customized features, flight alerts, and more!